Etusivu
METAR-TAF:

METAR-TAF

Lentoasemat :

Saint-Brieuc, Ranska

Leveyspiiri: 48-32N, Pituuspiiri: 002-51W, korkeus merenpinnasta: 138 m

Tämänhetkinen sää

Tämä raportti tehtiin 25 minuuttia sitten, kello 11.00 UTC
Tuuli 6 kn etelästä, vaihdellen etelän/kaakon ja lounaan välillä
Lämpötila 7°C
Kosteus 76%
Ilmanpaine 1026 hPa
Näkyvyys 10 km tai enemmän
Hajonneita pilviä 2900 ft:n korkeudessa
Hajonneita pilviä 3400 ft:n korkeudessa
Hajonneita pilviä 4000 ft:n korkeudessa

METAR: LFRT 181100Z AUTO 19006KT 160V220 9999 BKN029 BKN034 BKN040 07/03 Q1026

Aika: 12:25 (11:25 UTC)


TAF: puuttuu

Säähavainnot ja -ennusteet yli 4000 lentoasemalta (METAR- ja TAF-raportit).

Käytössä olevat sääasemat on merkitty karttaan keltaisilla ja punaisilla pisteillä.

Aseta hiiri pisteen päälle nähdäksesi sääaseman nimen.

Klikkaa sitten nähdäksesi säähavainnot ja -ennusteet.

Kartan vaihtaminen: klikkaa mustalla rastilla varustettuja vihreitä pisteitä, niin voit zoomata sisään; viivalla varustettua vihreää pistettä, niin voit zoomata ulos tai vihreitä nuolia, niin pääset viereisille kartoille.


METAR-TAF: